sensor_id;sensor_type;location;lat;lon;timestamp;pressure;altitude;pressure_sealevel;temperature;humidity
61014;BME280;46899;47.542;19.082;2022-09-09T00:02:52;100162.81;;;16.76;100.00
61014;BME280;46899;47.542;19.082;2022-09-09T00:09:14;100156.69;;;16.76;100.00
61014;BME280;46899;47.542;19.082;2022-09-09T00:12:38;100158.59;;;16.74;100.00
61014;BME280;46899;47.542;19.082;2022-09-09T00:15:56;100144.47;;;16.75;100.00
61014;BME280;46899;47.542;19.082;2022-09-09T00:22:23;100151.84;;;16.70;100.00
61014;BME280;46899;47.542;19.082;2022-09-09T00:28:33;100154.72;;;16.65;100.00
61014;BME280;46899;47.542;19.082;2022-09-09T00:31:38;100156.44;;;16.66;100.00
61014;BME280;46899;47.542;19.082;2022-09-09T00:34:47;100161.88;;;16.63;100.00
61014;BME280;46899;47.542;19.082;2022-09-09T00:37:56;100163.69;;;16.63;100.00
61014;BME280;46899;47.542;19.082;2022-09-09T00:41:10;100153.34;;;16.60;100.00
61014;BME280;46899;47.542;19.082;2022-09-09T00:44:25;100155.78;;;16.63;100.00
61014;BME280;46899;47.542;19.082;2022-09-09T00:56:53;100173.50;;;16.73;100.00
61014;BME280;46899;47.542;19.082;2022-09-09T01:03:36;100168.25;;;16.73;100.00
61014;BME280;46899;47.542;19.082;2022-09-09T01:06:39;100171.63;;;16.75;100.00
61014;BME280;46899;47.542;19.082;2022-09-09T01:12:48;100194.34;;;16.76;100.00
61014;BME280;46899;47.542;19.082;2022-09-09T01:15:53;100196.00;;;16.77;100.00
61014;BME280;46899;47.542;19.082;2022-09-09T01:19:03;100195.06;;;16.78;100.00
61014;BME280;46899;47.542;19.082;2022-09-09T01:22:13;100182.97;;;16.76;100.00
61014;BME280;46899;47.542;19.082;2022-09-09T01:28:42;100183.72;;;16.78;100.00
61014;BME280;46899;47.542;19.082;2022-09-09T01:31:54;100183.16;;;16.73;100.00
61014;BME280;46899;47.542;19.082;2022-09-09T01:34:57;100188.53;;;16.71;100.00
61014;BME280;46899;47.542;19.082;2022-09-09T01:38:01;100188.22;;;16.76;100.00
61014;BME280;46899;47.542;19.082;2022-09-09T01:41:04;100197.25;;;16.72;100.00
61014;BME280;46899;47.542;19.082;2022-09-09T01:44:08;100190.19;;;16.72;100.00
61014;BME280;46899;47.542;19.082;2022-09-09T01:47:13;100193.47;;;16.76;100.00
61014;BME280;46899;47.542;19.082;2022-09-09T01:50:18;100194.34;;;16.76;100.00
61014;BME280;46899;47.542;19.082;2022-09-09T01:53:21;100181.56;;;16.70;100.00
61014;BME280;46899;47.542;19.082;2022-09-09T02:02:35;100209.16;;;16.77;100.00
61014;BME280;46899;47.542;19.082;2022-09-09T02:05:42;100211.31;;;16.71;100.00
61014;BME280;46899;47.542;19.082;2022-09-09T02:08:49;100214.97;;;16.68;100.00
61014;BME280;46899;47.542;19.082;2022-09-09T02:11:55;100205.50;;;16.66;100.00
61014;BME280;46899;47.542;19.082;2022-09-09T02:15:05;100207.38;;;16.64;100.00
61014;BME280;46899;47.542;19.082;2022-09-09T02:18:10;100217.31;;;16.59;100.00
61014;BME280;46899;47.542;19.082;2022-09-09T02:21:16;100218.19;;;16.59;100.00
61014;BME280;46899;47.542;19.082;2022-09-09T02:24:20;100215.56;;;16.59;100.00
61014;BME280;46899;47.542;19.082;2022-09-09T02:27:23;100216.28;;;16.61;100.00
61014;BME280;46899;47.542;19.082;2022-09-09T02:30:27;100220.91;;;16.58;100.00
61014;BME280;46899;47.542;19.082;2022-09-09T02:33:37;100215.72;;;16.56;100.00
61014;BME280;46899;47.542;19.082;2022-09-09T02:36:41;100215.94;;;16.53;100.00
61014;BME280;46899;47.542;19.082;2022-09-09T02:39:46;100223.03;;;16.51;100.00
61014;BME280;46899;47.542;19.082;2022-09-09T02:42:49;100225.66;;;16.51;100.00
61014;BME280;46899;47.542;19.082;2022-09-09T02:49:19;100222.12;;;16.52;100.00
61014;BME280;46899;47.542;19.082;2022-09-09T02:52:27;100218.81;;;16.49;100.00
61014;BME280;46899;47.542;19.082;2022-09-09T02:55:46;100211.62;;;16.52;100.00
61014;BME280;46899;47.542;19.082;2022-09-09T02:58:51;100213.37;;;16.52;100.00
61014;BME280;46899;47.542;19.082;2022-09-09T03:01:54;100223.63;;;16.56;100.00
61014;BME280;46899;47.542;19.082;2022-09-09T03:04:57;100216.03;;;16.52;100.00
61014;BME280;46899;47.542;19.082;2022-09-09T03:08:01;100208.12;;;16.52;100.00
61014;BME280;46899;47.542;19.082;2022-09-09T03:11:04;100213.56;;;16.49;100.00
61014;BME280;46899;47.542;19.082;2022-09-09T03:14:07;100215.16;;;16.51;100.00
61014;BME280;46899;47.542;19.082;2022-09-09T03:17:10;100219.00;;;16.46;100.00
61014;BME280;46899;47.542;19.082;2022-09-09T03:20:16;100227.06;;;16.42;100.00
61014;BME280;46899;47.542;19.082;2022-09-09T03:23:19;100226.87;;;16.46;100.00
61014;BME280;46899;47.542;19.082;2022-09-09T03:26:24;100228.19;;;16.38;100.00
61014;BME280;46899;47.542;19.082;2022-09-09T03:29:26;100228.19;;;16.38;100.00
61014;BME280;46899;47.542;19.082;2022-09-09T03:32:31;100230.16;;;16.35;100.00
61014;BME280;46899;47.542;19.082;2022-09-09T03:35:34;100234.75;;;16.31;100.00
61014;BME280;46899;47.542;19.082;2022-09-09T03:38:37;100240.19;;;16.28;100.00
61014;BME280;46899;47.542;19.082;2022-09-09T03:41:40;100226.47;;;16.23;100.00
61014;BME280;46899;47.542;19.082;2022-09-09T03:44:43;100237.53;;;16.14;100.00
61014;BME280;46899;47.542;19.082;2022-09-09T03:47:52;100229.84;;;16.11;100.00
61014;BME280;46899;47.542;19.082;2022-09-09T03:50:55;100228.06;;;16.12;100.00
61014;BME280;46899;47.542;19.082;2022-09-09T03:54:01;100226.28;;;16.12;100.00
61014;BME280;46899;47.542;19.082;2022-09-09T03:57:03;100226.38;;;16.11;100.00
61014;BME280;46899;47.542;19.082;2022-09-09T04:00:08;100245.00;;;16.06;100.00
61014;BME280;46899;47.542;19.082;2022-09-09T04:03:17;100251.97;;;16.07;100.00
61014;BME280;46899;47.542;19.082;2022-09-09T04:06:20;100245.97;;;16.05;100.00
61014;BME280;46899;47.542;19.082;2022-09-09T04:09:23;100241.63;;;16.04;100.00
61014;BME280;46899;47.542;19.082;2022-09-09T04:12:26;100246.87;;;16.04;100.00
61014;BME280;46899;47.542;19.082;2022-09-09T04:15:29;100243.34;;;16.05;100.00
61014;BME280;46899;47.542;19.082;2022-09-09T04:18:32;100244.25;;;16.04;100.00
61014;BME280;46899;47.542;19.082;2022-09-09T04:21:37;100245.28;;;16.02;100.00
61014;BME280;46899;47.542;19.082;2022-09-09T04:24:40;100256.72;;;16.01;100.00
61014;BME280;46899;47.542;19.082;2022-09-09T04:27:58;100254.19;;;15.99;100.00
61014;BME280;46899;47.542;19.082;2022-09-09T04:31:08;100252.34;;;16.01;100.00
61014;BME280;46899;47.542;19.082;2022-09-09T04:34:11;100248.84;;;16.01;100.00
61014;BME280;46899;47.542;19.082;2022-09-09T04:37:14;100259.62;;;15.96;100.00
61014;BME280;46899;47.542;19.082;2022-09-09T04:40:17;100254.97;;;16.01;100.00
61014;BME280;46899;47.542;19.082;2022-09-09T04:43:21;100255.78;;;16.02;100.00
61014;BME280;46899;47.542;19.082;2022-09-09T04:46:24;100262.62;;;16.04;100.00
61014;BME280;46899;47.542;19.082;2022-09-09T04:49:27;100258.72;;;16.11;100.00
61014;BME280;46899;47.542;19.082;2022-09-09T04:52:30;100248.88;;;16.15;100.00
61014;BME280;46899;47.542;19.082;2022-09-09T04:55:33;100238.22;;;16.18;100.00
61014;BME280;46899;47.542;19.082;2022-09-09T04:58:37;100245.97;;;16.19;100.00
61014;BME280;46899;47.542;19.082;2022-09-09T05:01:41;100243.19;;;16.22;100.00
61014;BME280;46899;47.542;19.082;2022-09-09T05:04:43;100245.44;;;16.28;100.00
61014;BME280;46899;47.542;19.082;2022-09-09T05:07:46;100248.16;;;16.41;100.00
61014;BME280;46899;47.542;19.082;2022-09-09T05:10:53;100258.22;;;16.49;100.00
61014;BME280;46899;47.542;19.082;2022-09-09T05:13:57;100263.13;;;16.55;100.00
61014;BME280;46899;47.542;19.082;2022-09-09T05:16:59;100257.47;;;16.61;100.00
61014;BME280;46899;47.542;19.082;2022-09-09T05:20:02;100259.94;;;16.64;100.00
61014;BME280;46899;47.542;19.082;2022-09-09T05:23:11;100263.87;;;16.71;100.00
61014;BME280;46899;47.542;19.082;2022-09-09T05:26:15;100257.59;;;16.73;100.00
61014;BME280;46899;47.542;19.082;2022-09-09T05:29:20;100258.91;;;16.80;100.00
61014;BME280;46899;47.542;19.082;2022-09-09T05:32:23;100259.56;;;16.98;100.00
61014;BME280;46899;47.542;19.082;2022-09-09T05:35:26;100272.75;;;17.10;100.00
61014;BME280;46899;47.542;19.082;2022-09-09T05:38:31;100274.50;;;17.24;100.00
61014;BME280;46899;47.542;19.082;2022-09-09T05:41:34;100269.41;;;17.35;100.00
61014;BME280;46899;47.542;19.082;2022-09-09T05:44:38;100262.25;;;17.51;100.00
61014;BME280;46899;47.542;19.082;2022-09-09T05:47:42;100267.75;;;17.61;100.00
61014;BME280;46899;47.542;19.082;2022-09-09T05:50:52;100264.63;;;17.68;100.00
61014;BME280;46899;47.542;19.082;2022-09-09T05:53:54;100257.06;;;17.76;100.00
61014;BME280;46899;47.542;19.082;2022-09-09T05:57:03;100257.13;;;17.89;100.00
61014;BME280;46899;47.542;19.082;2022-09-09T06:00:05;100260.06;;;17.85;100.00
61014;BME280;46899;47.542;19.082;2022-09-09T06:03:14;100256.91;;;17.92;100.00
61014;BME280;46899;47.542;19.082;2022-09-09T06:06:20;100268.56;;;18.27;100.00
61014;BME280;46899;47.542;19.082;2022-09-09T06:09:23;100272.91;;;18.66;100.00
61014;BME280;46899;47.542;19.082;2022-09-09T06:12:25;100267.78;;;19.01;100.00
61014;BME280;46899;47.542;19.082;2022-09-09T06:15:28;100277.41;;;21.33;92.04
61014;BME280;46899;47.542;19.082;2022-09-09T06:18:33;100282.34;;;23.92;72.19
61014;BME280;46899;47.542;19.082;2022-09-09T06:21:35;100282.44;;;24.47;71.40
61014;BME280;46899;47.542;19.082;2022-09-09T06:24:40;100274.66;;;22.80;75.16
61014;BME280;46899;47.542;19.082;2022-09-09T06:27:43;100266.19;;;21.83;79.85
61014;BME280;46899;47.542;19.082;2022-09-09T06:30:56;100276.56;;;20.88;86.01
61014;BME280;46899;47.542;19.082;2022-09-09T06:33:59;100287.75;;;20.58;89.62
61014;BME280;46899;47.542;19.082;2022-09-09T06:37:02;100287.87;;;20.79;89.71
61014;BME280;46899;47.542;19.082;2022-09-09T06:40:05;100288.97;;;20.76;92.17
61014;BME280;46899;47.542;19.082;2022-09-09T06:43:09;100287.84;;;21.01;85.24
61014;BME280;46899;47.542;19.082;2022-09-09T06:49:16;100280.19;;;20.76;86.81
61014;BME280;46899;47.542;19.082;2022-09-09T06:52:30;100286.41;;;20.53;87.91
61014;BME280;46899;47.542;19.082;2022-09-09T06:55:34;100283.03;;;20.39;88.28
61014;BME280;46899;47.542;19.082;2022-09-09T06:58:37;100282.06;;;20.52;88.58
61014;BME280;46899;47.542;19.082;2022-09-09T07:01:41;100281.59;;;20.58;88.35
61014;BME280;46899;47.542;19.082;2022-09-09T07:04:45;100285.22;;;20.68;86.82
61014;BME280;46899;47.542;19.082;2022-09-09T07:07:48;100300.84;;;21.04;84.23
61014;BME280;46899;47.542;19.082;2022-09-09T07:10:53;100290.50;;;21.45;83.42
61014;BME280;46899;47.542;19.082;2022-09-09T07:13:57;100299.50;;;21.54;81.04
61014;BME280;46899;47.542;19.082;2022-09-09T07:17:01;100300.63;;;21.18;82.59
61014;BME280;46899;47.542;19.082;2022-09-09T07:20:04;100301.25;;;20.31;88.39
61014;BME280;46899;47.542;19.082;2022-09-09T07:23:07;100295.34;;;19.69;93.58
61014;BME280;46899;47.542;19.082;2022-09-09T07:26:11;100288.72;;;23.51;73.40
61014;BME280;46899;47.542;19.082;2022-09-09T07:29:13;100297.00;;;27.77;53.98
61014;BME280;46899;47.542;19.082;2022-09-09T07:32:22;100290.06;;;29.50;47.49
61014;BME280;46899;47.542;19.082;2022-09-09T07:35:25;100300.88;;;28.79;49.66
61014;BME280;46899;47.542;19.082;2022-09-09T07:38:29;100295.34;;;27.92;51.10
61014;BME280;46899;47.542;19.082;2022-09-09T07:41:33;100310.25;;;25.19;60.38
61014;BME280;46899;47.542;19.082;2022-09-09T07:44:37;100312.56;;;23.81;66.91
61014;BME280;46899;47.542;19.082;2022-09-09T07:47:43;100308.50;;;22.88;71.00
61014;BME280;46899;47.542;19.082;2022-09-09T07:50:46;100310.66;;;21.68;77.25
61014;BME280;46899;47.542;19.082;2022-09-09T07:53:51;100316.75;;;21.37;82.35
61014;BME280;46899;47.542;19.082;2022-09-09T07:56:54;100316.00;;;21.46;82.38
61014;BME280;46899;47.542;19.082;2022-09-09T07:59:57;100318.03;;;21.54;82.83
61014;BME280;46899;47.542;19.082;2022-09-09T08:03:00;100312.69;;;21.65;79.49
61014;BME280;46899;47.542;19.082;2022-09-09T08:06:05;100313.38;;;21.35;80.04
61014;BME280;46899;47.542;19.082;2022-09-09T08:09:09;100312.41;;;21.25;85.80
61014;BME280;46899;47.542;19.082;2022-09-09T08:12:12;100312.16;;;21.50;84.10
61014;BME280;46899;47.542;19.082;2022-09-09T08:15:15;100317.19;;;21.53;80.65
61014;BME280;46899;47.542;19.082;2022-09-09T08:18:18;100308.19;;;21.45;81.27
61014;BME280;46899;47.542;19.082;2022-09-09T08:21:22;100304.56;;;21.57;82.30
61014;BME280;46899;47.542;19.082;2022-09-09T08:24:26;100308.28;;;21.54;81.47
61014;BME280;46899;47.542;19.082;2022-09-09T08:27:28;100308.75;;;21.59;78.48
61014;BME280;46899;47.542;19.082;2022-09-09T08:30:32;100308.47;;;21.73;82.20
61014;BME280;46899;47.542;19.082;2022-09-09T08:33:35;100302.47;;;21.60;77.63
61014;BME280;46899;47.542;19.082;2022-09-09T08:36:41;100308.78;;;21.37;78.69
61014;BME280;46899;47.542;19.082;2022-09-09T08:39:44;100305.19;;;21.27;80.87
61014;BME280;46899;47.542;19.082;2022-09-09T08:42:49;100297.47;;;21.46;78.37
61014;BME280;46899;47.542;19.082;2022-09-09T08:45:57;100295.91;;;21.55;78.32
61014;BME280;46899;47.542;19.082;2022-09-09T08:58:42;100306.16;;;21.91;77.14
61014;BME280;46899;47.542;19.082;2022-09-09T09:11:01;100303.16;;;22.37;72.31
61014;BME280;46899;47.542;19.082;2022-09-09T09:14:08;100311.19;;;22.46;76.08
61014;BME280;46899;47.542;19.082;2022-09-09T09:17:13;100304.19;;;22.66;72.24
61014;BME280;46899;47.542;19.082;2022-09-09T09:20:18;100304.50;;;22.31;73.05
61014;BME280;46899;47.542;19.082;2022-09-09T09:23:24;100300.97;;;22.63;71.90
61014;BME280;46899;47.542;19.082;2022-09-09T09:26:32;100300.34;;;22.59;68.18
61014;BME280;46899;47.542;19.082;2022-09-09T09:29:35;100299.19;;;22.52;69.89
61014;BME280;46899;47.542;19.082;2022-09-09T09:37:07;100280.28;;;22.87;70.37
61014;BME280;46899;47.542;19.082;2022-09-09T09:39:47;100271.97;;;23.10;70.68
61014;BME280;46899;47.542;19.082;2022-09-09T09:43:16;100277.37;;;23.39;69.30
61014;BME280;46899;47.542;19.082;2022-09-09T09:46:23;100269.72;;;23.55;66.56
61014;BME280;46899;47.542;19.082;2022-09-09T09:49:28;100270.84;;;23.72;67.73
61014;BME280;46899;47.542;19.082;2022-09-09T09:52:31;100269.19;;;23.61;67.01
61014;BME280;46899;47.542;19.082;2022-09-09T09:55:35;100266.66;;;23.79;65.11
61014;BME280;46899;47.542;19.082;2022-09-09T10:01:52;100280.25;;;24.24;64.66
61014;BME280;46899;47.542;19.082;2022-09-09T10:05:05;100288.44;;;24.59;59.77
61014;BME280;46899;47.542;19.082;2022-09-09T10:08:10;100290.84;;;24.53;58.20
61014;BME280;46899;47.542;19.082;2022-09-09T10:18:03;100276.16;;;24.95;59.31
61014;BME280;46899;47.542;19.082;2022-09-09T10:36:58;100268.41;;;25.73;54.99
61014;BME280;46899;47.542;19.082;2022-09-09T10:40:50;100264.72;;;26.10;53.53
61014;BME280;46899;47.542;19.082;2022-09-09T10:46:41;100262.12;;;26.35;51.93
61014;BME280;46899;47.542;19.082;2022-09-09T10:50:02;100270.34;;;26.42;51.59
61014;BME280;46899;47.542;19.082;2022-09-09T10:56:29;100271.00;;;26.70;50.17
61014;BME280;46899;47.542;19.082;2022-09-09T10:59:43;100267.00;;;26.91;50.61
61014;BME280;46899;47.542;19.082;2022-09-09T11:02:49;100259.12;;;26.90;49.79
61014;BME280;46899;47.542;19.082;2022-09-09T11:05:56;100260.44;;;26.60;49.10
61014;BME280;46899;47.542;19.082;2022-09-09T11:09:00;100266.34;;;26.20;51.12
61014;BME280;46899;47.542;19.082;2022-09-09T11:12:04;100272.81;;;26.61;51.90
61014;BME280;46899;47.542;19.082;2022-09-09T11:18:19;100264.16;;;26.67;48.12
61014;BME280;46899;47.542;19.082;2022-09-09T11:21:23;100247.75;;;26.54;49.14
61014;BME280;46899;47.542;19.082;2022-09-09T11:24:30;100249.03;;;26.07;48.39
61014;BME280;46899;47.542;19.082;2022-09-09T11:34:03;100250.91;;;26.58;49.67
61014;BME280;46899;47.542;19.082;2022-09-09T11:40:28;100248.16;;;26.41;48.22
61014;BME280;46899;47.542;19.082;2022-09-09T11:43:34;100240.41;;;26.56;48.61
61014;BME280;46899;47.542;19.082;2022-09-09T11:46:42;100238.78;;;26.97;49.74
61014;BME280;46899;47.542;19.082;2022-09-09T11:49:47;100231.19;;;26.76;49.26
61014;BME280;46899;47.542;19.082;2022-09-09T11:52:50;100222.78;;;26.71;47.73
61014;BME280;46899;47.542;19.082;2022-09-09T11:59:05;100223.66;;;26.46;50.04
61014;BME280;46899;47.542;19.082;2022-09-09T12:05:11;100225.00;;;26.50;46.89
61014;BME280;46899;47.542;19.082;2022-09-09T12:08:16;100226.44;;;26.36;46.89
61014;BME280;46899;47.542;19.082;2022-09-09T12:11:26;100227.47;;;26.18;48.25
61014;BME280;46899;47.542;19.082;2022-09-09T12:17:42;100227.75;;;26.32;46.85
61014;BME280;46899;47.542;19.082;2022-09-09T12:21:06;100237.47;;;26.16;48.10
61014;BME280;46899;47.542;19.082;2022-09-09T12:24:11;100247.53;;;25.87;48.02
61014;BME280;46899;47.542;19.082;2022-09-09T12:27:23;100246.91;;;26.28;47.74
61014;BME280;46899;47.542;19.082;2022-09-09T12:30:29;100241.25;;;26.57;46.81
61014;BME280;46899;47.542;19.082;2022-09-09T12:33:35;100222.75;;;26.63;46.77
61014;BME280;46899;47.542;19.082;2022-09-09T12:36:38;100221.72;;;26.82;46.97
61014;BME280;46899;47.542;19.082;2022-09-09T12:39:43;100216.75;;;26.69;46.57
61014;BME280;46899;47.542;19.082;2022-09-09T12:42:49;100209.81;;;26.76;45.43
61014;BME280;46899;47.542;19.082;2022-09-09T12:46:02;100215.22;;;26.84;44.78
61014;BME280;46899;47.542;19.082;2022-09-09T12:52:41;100211.50;;;26.77;44.33
61014;BME280;46899;47.542;19.082;2022-09-09T12:55:56;100197.06;;;26.96;45.03
61014;BME280;46899;47.542;19.082;2022-09-09T12:58:59;100200.66;;;26.79;44.51
61014;BME280;46899;47.542;19.082;2022-09-09T13:02:11;100195.75;;;26.66;44.54
61014;BME280;46899;47.542;19.082;2022-09-09T13:05:24;100192.38;;;26.30;45.40
61014;BME280;46899;47.542;19.082;2022-09-09T13:08:27;100183.81;;;26.19;46.03
61014;BME280;46899;47.542;19.082;2022-09-09T13:14:33;100174.59;;;26.13;45.01
61014;BME280;46899;47.542;19.082;2022-09-09T13:17:39;100161.81;;;26.25;46.20
61014;BME280;46899;47.542;19.082;2022-09-09T13:20:46;100171.44;;;26.18;46.32
61014;BME280;46899;47.542;19.082;2022-09-09T13:23:49;100166.75;;;26.37;44.88
61014;BME280;46899;47.542;19.082;2022-09-09T13:26:57;100170.94;;;26.40;45.66
61014;BME280;46899;47.542;19.082;2022-09-09T13:30:00;100162.31;;;26.54;44.11
61014;BME280;46899;47.542;19.082;2022-09-09T13:36:09;100154.97;;;26.22;45.07
61014;BME280;46899;47.542;19.082;2022-09-09T13:39:15;100148.00;;;26.04;46.09
61014;BME280;46899;47.542;19.082;2022-09-09T13:42:26;100151.12;;;25.99;45.88
61014;BME280;46899;47.542;19.082;2022-09-09T13:45:30;100148.47;;;26.25;45.12
61014;BME280;46899;47.542;19.082;2022-09-09T13:48:32;100146.84;;;26.32;43.95
61014;BME280;46899;47.542;19.082;2022-09-09T13:51:36;100154.78;;;26.16;45.34
61014;BME280;46899;47.542;19.082;2022-09-09T13:54:39;100150.88;;;26.36;47.38
61014;BME280;46899;47.542;19.082;2022-09-09T14:00:54;100141.63;;;26.22;43.40
61014;BME280;46899;47.542;19.082;2022-09-09T14:03:57;100133.75;;;26.46;43.35
61014;BME280;46899;47.542;19.082;2022-09-09T14:07:01;100127.22;;;26.75;44.71
61014;BME280;46899;47.542;19.082;2022-09-09T14:10:04;100128.63;;;27.19;42.63
61014;BME280;46899;47.542;19.082;2022-09-09T14:13:07;100131.72;;;27.48;40.22
61014;BME280;46899;47.542;19.082;2022-09-09T14:16:10;100120.50;;;27.37;42.93
61014;BME280;46899;47.542;19.082;2022-09-09T14:19:12;100112.03;;;26.75;42.71
61014;BME280;46899;47.542;19.082;2022-09-09T14:22:15;100107.12;;;26.21;46.02
61014;BME280;46899;47.542;19.082;2022-09-09T14:25:17;100108.53;;;26.07;43.99
61014;BME280;46899;47.542;19.082;2022-09-09T14:28:20;100102.34;;;25.81;46.00
61014;BME280;46899;47.542;19.082;2022-09-09T14:31:42;100112.09;;;25.72;46.15
61014;BME280;46899;47.542;19.082;2022-09-09T14:34:45;100103.88;;;25.84;43.98
61014;BME280;46899;47.542;19.082;2022-09-09T14:37:47;100113.03;;;25.63;45.15
61014;BME280;46899;47.542;19.082;2022-09-09T14:40:51;100103.81;;;25.75;46.49
61014;BME280;46899;47.542;19.082;2022-09-09T14:43:53;100113.72;;;25.65;48.05
61014;BME280;46899;47.542;19.082;2022-09-09T14:46:56;100094.87;;;25.85;43.91
61014;BME280;46899;47.542;19.082;2022-09-09T14:49:58;100097.25;;;25.96;43.91
61014;BME280;46899;47.542;19.082;2022-09-09T14:53:03;100098.37;;;26.11;44.48
61014;BME280;46899;47.542;19.082;2022-09-09T14:56:06;100096.66;;;26.10;43.02
61014;BME280;46899;47.542;19.082;2022-09-09T14:59:10;100095.75;;;25.67;46.19
61014;BME280;46899;47.542;19.082;2022-09-09T15:02:14;100100.19;;;25.41;47.54
61014;BME280;46899;47.542;19.082;2022-09-09T15:05:16;100102.09;;;25.31;47.30
61014;BME280;46899;47.542;19.082;2022-09-09T15:08:19;100102.63;;;25.35;46.86
61014;BME280;46899;47.542;19.082;2022-09-09T15:11:21;100099.91;;;25.27;48.08
61014;BME280;46899;47.542;19.082;2022-09-09T15:14:26;100107.06;;;25.26;48.60
61014;BME280;46899;47.542;19.082;2022-09-09T15:17:29;100108.41;;;25.30;47.33
61014;BME280;46899;47.542;19.082;2022-09-09T15:20:31;100099.94;;;25.35;46.86
61014;BME280;46899;47.542;19.082;2022-09-09T15:23:39;100111.53;;;25.43;46.51
61014;BME280;46899;47.542;19.082;2022-09-09T15:26:42;100109.16;;;25.58;45.74
61014;BME280;46899;47.542;19.082;2022-09-09T15:29:44;100106.28;;;25.69;45.58
61014;BME280;46899;47.542;19.082;2022-09-09T15:32:47;100099.25;;;25.68;47.00
61014;BME280;46899;47.542;19.082;2022-09-09T15:35:49;100099.13;;;25.69;46.57
61014;BME280;46899;47.542;19.082;2022-09-09T15:38:52;100091.72;;;25.63;48.09
61014;BME280;46899;47.542;19.082;2022-09-09T15:41:55;100108.88;;;25.61;47.38
61014;BME280;46899;47.542;19.082;2022-09-09T15:45:56;100090.66;;;26.33;45.37
61014;BME280;46899;47.542;19.082;2022-09-09T15:52:12;100101.69;;;25.79;46.05
61014;BME280;46899;47.542;19.082;2022-09-09T15:55:15;100097.69;;;25.57;45.40
61014;BME280;46899;47.542;19.082;2022-09-09T15:58:17;100099.91;;;25.27;46.55
61014;BME280;46899;47.542;19.082;2022-09-09T16:01:20;100096.94;;;25.12;46.41
61014;BME280;46899;47.542;19.082;2022-09-09T16:04:23;100092.81;;;25.00;46.13
61014;BME280;46899;47.542;19.082;2022-09-09T16:07:26;100094.94;;;24.79;48.31
61014;BME280;46899;47.542;19.082;2022-09-09T16:10:29;100101.81;;;24.72;49.23
61014;BME280;46899;47.542;19.082;2022-09-09T16:13:33;100098.19;;;24.45;49.48
61014;BME280;46899;47.542;19.082;2022-09-09T16:16:36;100112.84;;;24.22;50.24
61014;BME280;46899;47.542;19.082;2022-09-09T16:19:39;100116.38;;;24.13;54.22
61014;BME280;46899;47.542;19.082;2022-09-09T16:22:43;100128.31;;;24.00;53.19
61014;BME280;46899;47.542;19.082;2022-09-09T16:25:54;100114.03;;;23.91;55.79
61014;BME280;46899;47.542;19.082;2022-09-09T16:28:57;100117.97;;;23.87;55.20
61014;BME280;46899;47.542;19.082;2022-09-09T16:32:00;100114.63;;;23.85;60.18
61014;BME280;46899;47.542;19.082;2022-09-09T16:35:06;100116.62;;;23.73;58.32
61014;BME280;46899;47.542;19.082;2022-09-09T16:38:08;100122.47;;;23.67;56.64
61014;BME280;46899;47.542;19.082;2022-09-09T16:41:11;100113.12;;;23.54;56.21
61014;BME280;46899;47.542;19.082;2022-09-09T16:44:14;100115.81;;;23.35;56.72
61014;BME280;46899;47.542;19.082;2022-09-09T16:47:21;100106.84;;;23.26;58.08
61014;BME280;46899;47.542;19.082;2022-09-09T16:50:24;100107.94;;;23.04;58.46
61014;BME280;46899;47.542;19.082;2022-09-09T16:53:26;100104.31;;;22.86;60.18
61014;BME280;46899;47.542;19.082;2022-09-09T16:56:30;100108.31;;;22.71;65.33
61014;BME280;46899;47.542;19.082;2022-09-09T16:59:35;100108.94;;;22.54;65.73
61014;BME280;46899;47.542;19.082;2022-09-09T17:02:38;100111.25;;;22.38;65.85
61014;BME280;46899;47.542;19.082;2022-09-09T17:05:40;100108.56;;;22.28;65.81
61014;BME280;46899;47.542;19.082;2022-09-09T17:08:43;100113.81;;;22.19;66.78
61014;BME280;46899;47.542;19.082;2022-09-09T17:11:46;100112.66;;;22.12;65.99
61014;BME280;46899;47.542;19.082;2022-09-09T17:14:49;100117.94;;;22.02;65.55
61014;BME280;46899;47.542;19.082;2022-09-09T17:17:52;100121.50;;;21.92;66.34
61014;BME280;46899;47.542;19.082;2022-09-09T17:20:59;100119.72;;;21.81;65.50
61014;BME280;46899;47.542;19.082;2022-09-09T17:24:04;100123.06;;;21.73;67.95
61014;BME280;46899;47.542;19.082;2022-09-09T17:27:06;100134.69;;;21.61;67.60
61014;BME280;46899;47.542;19.082;2022-09-09T17:30:09;100123.16;;;21.51;68.81
61014;BME280;46899;47.542;19.082;2022-09-09T17:33:12;100132.84;;;21.41;68.11
61014;BME280;46899;47.542;19.082;2022-09-09T17:36:16;100129.16;;;21.33;67.84
61014;BME280;46899;47.542;19.082;2022-09-09T17:39:19;100129.06;;;21.23;68.18
61014;BME280;46899;47.542;19.082;2022-09-09T17:42:22;100128.84;;;21.15;67.32
61014;BME280;46899;47.542;19.082;2022-09-09T17:45:24;100133.94;;;21.07;69.50
61014;BME280;46899;47.542;19.082;2022-09-09T17:48:29;100125.75;;;20.99;70.00
61014;BME280;46899;47.542;19.082;2022-09-09T17:51:32;100126.41;;;20.91;70.23
61014;BME280;46899;47.542;19.082;2022-09-09T17:54:35;100120.88;;;20.83;70.37
61014;BME280;46899;47.542;19.082;2022-09-09T17:57:37;100136.13;;;20.80;70.67
61014;BME280;46899;47.542;19.082;2022-09-09T18:00:39;100145.91;;;20.79;70.51
61014;BME280;46899;47.542;19.082;2022-09-09T18:03:43;100140.62;;;20.79;70.84
61014;BME280;46899;47.542;19.082;2022-09-09T18:06:47;100145.91;;;20.79;72.19